sensor_id;sensor_type;location;lat;lon;timestamp;P1;durP1;ratioP1;P2;durP2;ratioP2
11006;SDS011;8186;57.652;11.968;2024-02-15T00:01:05;13.33;;;10.40;;
11006;SDS011;8186;57.652;11.968;2024-02-15T00:03:32;14.80;;;11.00;;
11006;SDS011;8186;57.652;11.968;2024-02-15T00:06:01;13.67;;;10.60;;
11006;SDS011;8186;57.652;11.968;2024-02-15T00:08:28;14.67;;;10.60;;
11006;SDS011;8186;57.652;11.968;2024-02-15T00:10:55;15.20;;;11.10;;
11006;SDS011;8186;57.652;11.968;2024-02-15T00:13:22;13.47;;;9.93;;
11006;SDS011;8186;57.652;11.968;2024-02-15T00:15:50;11.93;;;9.87;;
11006;SDS011;8186;57.652;11.968;2024-02-15T00:18:17;13.33;;;10.17;;
11006;SDS011;8186;57.652;11.968;2024-02-15T00:20:44;15.63;;;10.60;;
11006;SDS011;8186;57.652;11.968;2024-02-15T00:23:12;15.37;;;10.07;;
11006;SDS011;8186;57.652;11.968;2024-02-15T00:25:42;14.70;;;11.13;;
11006;SDS011;8186;57.652;11.968;2024-02-15T00:28:10;15.57;;;10.93;;
11006;SDS011;8186;57.652;11.968;2024-02-15T00:30:37;12.97;;;10.13;;
11006;SDS011;8186;57.652;11.968;2024-02-15T00:33:04;13.43;;;10.23;;
11006;SDS011;8186;57.652;11.968;2024-02-15T00:35:31;13.97;;;10.90;;
11006;SDS011;8186;57.652;11.968;2024-02-15T00:37:57;14.63;;;11.00;;
11006;SDS011;8186;57.652;11.968;2024-02-15T00:40:25;16.03;;;10.47;;
11006;SDS011;8186;57.652;11.968;2024-02-15T00:42:52;15.73;;;10.80;;
11006;SDS011;8186;57.652;11.968;2024-02-15T00:45:19;13.77;;;10.50;;
11006;SDS011;8186;57.652;11.968;2024-02-15T00:47:45;13.93;;;10.17;;
11006;SDS011;8186;57.652;11.968;2024-02-15T00:50:12;14.00;;;9.93;;
11006;SDS011;8186;57.652;11.968;2024-02-15T00:52:39;14.50;;;9.63;;
11006;SDS011;8186;57.652;11.968;2024-02-15T00:55:06;12.93;;;9.53;;
11006;SDS011;8186;57.652;11.968;2024-02-15T00:57:35;14.97;;;10.17;;
11006;SDS011;8186;57.652;11.968;2024-02-15T01:00:02;12.07;;;9.70;;
11006;SDS011;8186;57.652;11.968;2024-02-15T01:02:31;14.00;;;9.83;;
11006;SDS011;8186;57.652;11.968;2024-02-15T01:04:59;15.10;;;10.30;;
11006;SDS011;8186;57.652;11.968;2024-02-15T01:07:25;13.67;;;9.90;;
11006;SDS011;8186;57.652;11.968;2024-02-15T01:09:53;17.47;;;10.53;;
11006;SDS011;8186;57.652;11.968;2024-02-15T01:12:20;13.33;;;10.27;;
11006;SDS011;8186;57.652;11.968;2024-02-15T01:14:48;12.70;;;9.30;;
11006;SDS011;8186;57.652;11.968;2024-02-15T01:17:15;15.37;;;9.70;;
11006;SDS011;8186;57.652;11.968;2024-02-15T01:19:42;13.80;;;9.63;;
11006;SDS011;8186;57.652;11.968;2024-02-15T01:22:09;14.63;;;9.90;;
11006;SDS011;8186;57.652;11.968;2024-02-15T01:24:36;12.87;;;9.80;;
11006;SDS011;8186;57.652;11.968;2024-02-15T01:27:02;14.03;;;9.90;;
11006;SDS011;8186;57.652;11.968;2024-02-15T01:29:32;13.83;;;9.50;;
11006;SDS011;8186;57.652;11.968;2024-02-15T01:32:01;11.70;;;8.63;;
11006;SDS011;8186;57.652;11.968;2024-02-15T01:34:28;12.30;;;9.07;;
11006;SDS011;8186;57.652;11.968;2024-02-15T01:36:54;11.77;;;8.33;;
11006;SDS011;8186;57.652;11.968;2024-02-15T01:39:21;13.53;;;9.10;;
11006;SDS011;8186;57.652;11.968;2024-02-15T01:41:49;12.40;;;9.17;;
11006;SDS011;8186;57.652;11.968;2024-02-15T01:44:17;13.07;;;9.40;;
11006;SDS011;8186;57.652;11.968;2024-02-15T01:46:45;11.60;;;9.20;;
11006;SDS011;8186;57.652;11.968;2024-02-15T01:49:15;13.10;;;9.33;;
11006;SDS011;8186;57.652;11.968;2024-02-15T01:51:42;11.70;;;8.47;;
11006;SDS011;8186;57.652;11.968;2024-02-15T01:54:09;12.03;;;9.33;;
11006;SDS011;8186;57.652;11.968;2024-02-15T01:56:36;11.93;;;9.07;;
11006;SDS011;8186;57.652;11.968;2024-02-15T01:59:03;11.57;;;8.63;;
11006;SDS011;8186;57.652;11.968;2024-02-15T02:01:31;11.63;;;8.50;;
11006;SDS011;8186;57.652;11.968;2024-02-15T02:03:58;12.00;;;8.77;;
11006;SDS011;8186;57.652;11.968;2024-02-15T02:06:28;10.40;;;8.50;;
11006;SDS011;8186;57.652;11.968;2024-02-15T02:08:55;10.67;;;8.20;;
11006;SDS011;8186;57.652;11.968;2024-02-15T02:11:22;10.97;;;8.33;;
11006;SDS011;8186;57.652;11.968;2024-02-15T02:13:49;11.10;;;8.57;;
11006;SDS011;8186;57.652;11.968;2024-02-15T02:16:26;11.03;;;7.97;;
11006;SDS011;8186;57.652;11.968;2024-02-15T02:18:54;10.93;;;7.60;;
11006;SDS011;8186;57.652;11.968;2024-02-15T02:21:22;12.10;;;7.97;;
11006;SDS011;8186;57.652;11.968;2024-02-15T02:23:52;8.17;;;7.17;;
11006;SDS011;8186;57.652;11.968;2024-02-15T02:26:21;9.20;;;7.37;;
11006;SDS011;8186;57.652;11.968;2024-02-15T02:28:49;9.93;;;7.83;;
11006;SDS011;8186;57.652;11.968;2024-02-15T02:31:16;10.47;;;8.37;;
11006;SDS011;8186;57.652;11.968;2024-02-15T02:33:44;10.37;;;7.63;;
11006;SDS011;8186;57.652;11.968;2024-02-15T02:36:14;10.20;;;8.33;;
11006;SDS011;8186;57.652;11.968;2024-02-15T02:38:41;9.80;;;8.17;;
11006;SDS011;8186;57.652;11.968;2024-02-15T02:41:10;9.20;;;7.47;;
11006;SDS011;8186;57.652;11.968;2024-02-15T02:43:39;8.60;;;7.33;;
11006;SDS011;8186;57.652;11.968;2024-02-15T02:46:05;7.90;;;6.93;;
11006;SDS011;8186;57.652;11.968;2024-02-15T02:48:32;8.73;;;7.53;;
11006;SDS011;8186;57.652;11.968;2024-02-15T02:50:59;10.47;;;7.63;;
11006;SDS011;8186;57.652;11.968;2024-02-15T02:53:26;10.57;;;7.70;;
11006;SDS011;8186;57.652;11.968;2024-02-15T02:55:53;8.50;;;7.20;;
11006;SDS011;8186;57.652;11.968;2024-02-15T02:58:22;8.83;;;6.97;;
11006;SDS011;8186;57.652;11.968;2024-02-15T03:00:50;7.77;;;6.63;;
11006;SDS011;8186;57.652;11.968;2024-02-15T03:03:17;7.83;;;7.03;;
11006;SDS011;8186;57.652;11.968;2024-02-15T03:05:44;8.43;;;7.00;;
11006;SDS011;8186;57.652;11.968;2024-02-15T03:08:11;8.63;;;7.23;;
11006;SDS011;8186;57.652;11.968;2024-02-15T03:10:38;8.90;;;7.00;;
11006;SDS011;8186;57.652;11.968;2024-02-15T03:13:06;8.53;;;7.47;;
11006;SDS011;8186;57.652;11.968;2024-02-15T03:15:34;9.07;;;8.10;;
11006;SDS011;8186;57.652;11.968;2024-02-15T03:18:02;9.37;;;7.40;;
11006;SDS011;8186;57.652;11.968;2024-02-15T03:20:32;8.60;;;7.03;;
11006;SDS011;8186;57.652;11.968;2024-02-15T03:23:00;8.43;;;7.00;;
11006;SDS011;8186;57.652;11.968;2024-02-15T03:25:28;8.00;;;7.20;;
11006;SDS011;8186;57.652;11.968;2024-02-15T03:27:55;7.93;;;7.13;;
11006;SDS011;8186;57.652;11.968;2024-02-15T03:30:24;7.93;;;7.13;;
11006;SDS011;8186;57.652;11.968;2024-02-15T03:32:54;8.97;;;7.30;;
11006;SDS011;8186;57.652;11.968;2024-02-15T03:35:23;8.03;;;6.97;;
11006;SDS011;8186;57.652;11.968;2024-02-15T03:37:51;9.43;;;7.37;;
11006;SDS011;8186;57.652;11.968;2024-02-15T03:40:18;10.03;;;7.37;;
11006;SDS011;8186;57.652;11.968;2024-02-15T03:42:45;8.80;;;7.60;;
11006;SDS011;8186;57.652;11.968;2024-02-15T03:45:13;8.53;;;7.07;;
11006;SDS011;8186;57.652;11.968;2024-02-15T03:47:39;9.63;;;7.90;;
11006;SDS011;8186;57.652;11.968;2024-02-15T03:50:07;8.90;;;7.67;;
11006;SDS011;8186;57.652;11.968;2024-02-15T03:52:36;7.60;;;6.67;;
11006;SDS011;8186;57.652;11.968;2024-02-15T03:55:03;8.77;;;7.40;;
11006;SDS011;8186;57.652;11.968;2024-02-15T03:57:32;8.50;;;6.80;;
11006;SDS011;8186;57.652;11.968;2024-02-15T03:59:59;8.60;;;7.60;;
11006;SDS011;8186;57.652;11.968;2024-02-15T04:02:26;7.33;;;6.57;;
11006;SDS011;8186;57.652;11.968;2024-02-15T04:04:54;9.87;;;7.23;;
11006;SDS011;8186;57.652;11.968;2024-02-15T04:07:21;8.87;;;7.63;;
11006;SDS011;8186;57.652;11.968;2024-02-15T04:09:52;11.27;;;8.03;;
11006;SDS011;8186;57.652;11.968;2024-02-15T04:12:18;9.30;;;7.97;;
11006;SDS011;8186;57.652;11.968;2024-02-15T04:14:45;8.77;;;7.63;;
11006;SDS011;8186;57.652;11.968;2024-02-15T04:17:13;9.77;;;7.87;;
11006;SDS011;8186;57.652;11.968;2024-02-15T04:19:43;10.10;;;7.90;;
11006;SDS011;8186;57.652;11.968;2024-02-15T04:22:11;8.80;;;7.60;;
11006;SDS011;8186;57.652;11.968;2024-02-15T04:24:38;11.30;;;8.47;;
11006;SDS011;8186;57.652;11.968;2024-02-15T04:27:07;10.33;;;8.40;;
11006;SDS011;8186;57.652;11.968;2024-02-15T04:29:37;10.33;;;8.03;;
11006;SDS011;8186;57.652;11.968;2024-02-15T04:32:05;8.97;;;8.07;;
11006;SDS011;8186;57.652;11.968;2024-02-15T04:34:34;10.17;;;8.30;;
11006;SDS011;8186;57.652;11.968;2024-02-15T04:37:01;10.20;;;9.13;;
11006;SDS011;8186;57.652;11.968;2024-02-15T04:39:31;14.20;;;8.67;;
11006;SDS011;8186;57.652;11.968;2024-02-15T04:41:58;11.03;;;8.57;;
11006;SDS011;8186;57.652;11.968;2024-02-15T04:44:26;11.93;;;8.77;;
11006;SDS011;8186;57.652;11.968;2024-02-15T04:46:53;11.10;;;8.43;;
11006;SDS011;8186;57.652;11.968;2024-02-15T04:49:20;10.00;;;8.90;;
11006;SDS011;8186;57.652;11.968;2024-02-15T04:51:48;10.27;;;8.80;;
11006;SDS011;8186;57.652;11.968;2024-02-15T04:54:14;11.03;;;8.97;;
11006;SDS011;8186;57.652;11.968;2024-02-15T04:56:43;9.70;;;8.40;;
11006;SDS011;8186;57.652;11.968;2024-02-15T04:59:11;10.33;;;8.67;;
11006;SDS011;8186;57.652;11.968;2024-02-15T05:01:42;14.93;;;9.60;;
11006;SDS011;8186;57.652;11.968;2024-02-15T05:04:09;10.70;;;8.70;;
11006;SDS011;8186;57.652;11.968;2024-02-15T05:06:36;10.60;;;9.37;;
11006;SDS011;8186;57.652;11.968;2024-02-15T05:09:03;11.43;;;8.67;;
11006;SDS011;8186;57.652;11.968;2024-02-15T05:11:32;10.93;;;9.10;;
11006;SDS011;8186;57.652;11.968;2024-02-15T05:14:00;12.20;;;8.50;;
11006;SDS011;8186;57.652;11.968;2024-02-15T05:16:28;13.00;;;9.57;;
11006;SDS011;8186;57.652;11.968;2024-02-15T05:18:58;11.73;;;8.93;;
11006;SDS011;8186;57.652;11.968;2024-02-15T05:21:24;14.70;;;9.63;;
11006;SDS011;8186;57.652;11.968;2024-02-15T05:23:51;12.77;;;9.87;;
11006;SDS011;8186;57.652;11.968;2024-02-15T05:26:18;12.57;;;9.90;;
11006;SDS011;8186;57.652;11.968;2024-02-15T05:28:48;12.57;;;9.30;;
11006;SDS011;8186;57.652;11.968;2024-02-15T05:31:16;13.23;;;9.67;;
11006;SDS011;8186;57.652;11.968;2024-02-15T05:33:45;13.63;;;10.03;;
11006;SDS011;8186;57.652;11.968;2024-02-15T05:36:14;12.50;;;9.27;;
11006;SDS011;8186;57.652;11.968;2024-02-15T05:38:41;11.13;;;9.03;;
11006;SDS011;8186;57.652;11.968;2024-02-15T05:41:10;13.17;;;9.93;;
11006;SDS011;8186;57.652;11.968;2024-02-15T05:43:38;13.47;;;9.90;;
11006;SDS011;8186;57.652;11.968;2024-02-15T05:46:06;13.60;;;10.03;;
11006;SDS011;8186;57.652;11.968;2024-02-15T05:48:34;11.67;;;9.60;;
11006;SDS011;8186;57.652;11.968;2024-02-15T05:51:02;12.83;;;9.53;;
11006;SDS011;8186;57.652;11.968;2024-02-15T05:53:30;11.83;;;9.47;;
11006;SDS011;8186;57.652;11.968;2024-02-15T05:56:01;11.53;;;9.53;;
11006;SDS011;8186;57.652;11.968;2024-02-15T05:58:29;12.27;;;10.63;;
11006;SDS011;8186;57.652;11.968;2024-02-15T06:00:56;10.83;;;9.50;;
11006;SDS011;8186;57.652;11.968;2024-02-15T06:03:26;12.20;;;9.63;;
11006;SDS011;8186;57.652;11.968;2024-02-15T06:05:53;12.43;;;10.20;;
11006;SDS011;8186;57.652;11.968;2024-02-15T06:08:23;12.27;;;9.50;;
11006;SDS011;8186;57.652;11.968;2024-02-15T06:10:52;12.00;;;9.80;;
11006;SDS011;8186;57.652;11.968;2024-02-15T06:13:19;13.57;;;9.93;;
11006;SDS011;8186;57.652;11.968;2024-02-15T06:15:46;12.50;;;10.27;;
11006;SDS011;8186;57.652;11.968;2024-02-15T06:18:17;11.20;;;9.57;;
11006;SDS011;8186;57.652;11.968;2024-02-15T06:20:46;11.90;;;9.33;;
11006;SDS011;8186;57.652;11.968;2024-02-15T06:23:15;11.63;;;9.70;;
11006;SDS011;8186;57.652;11.968;2024-02-15T06:25:42;13.20;;;9.93;;
11006;SDS011;8186;57.652;11.968;2024-02-15T06:28:11;11.53;;;9.17;;
11006;SDS011;8186;57.652;11.968;2024-02-15T06:31:01;12.37;;;9.43;;
11006;SDS011;8186;57.652;11.968;2024-02-15T06:33:46;14.83;;;9.40;;
11006;SDS011;8186;57.652;11.968;2024-02-15T06:36:30;12.07;;;9.20;;
11006;SDS011;8186;57.652;11.968;2024-02-15T06:39:14;10.70;;;8.67;;
11006;SDS011;8186;57.652;11.968;2024-02-15T06:41:58;12.20;;;8.90;;
11006;SDS011;8186;57.652;11.968;2024-02-15T06:44:27;13.27;;;9.20;;
11006;SDS011;8186;57.652;11.968;2024-02-15T06:46:54;10.93;;;9.33;;
11006;SDS011;8186;57.652;11.968;2024-02-15T06:49:22;13.47;;;10.17;;
11006;SDS011;8186;57.652;11.968;2024-02-15T06:51:49;12.47;;;10.03;;
11006;SDS011;8186;57.652;11.968;2024-02-15T06:54:17;12.77;;;9.67;;
11006;SDS011;8186;57.652;11.968;2024-02-15T06:56:43;13.13;;;9.80;;
11006;SDS011;8186;57.652;11.968;2024-02-15T06:59:11;12.03;;;9.23;;
11006;SDS011;8186;57.652;11.968;2024-02-15T07:01:41;13.57;;;10.77;;
11006;SDS011;8186;57.652;11.968;2024-02-15T07:04:08;12.17;;;10.17;;
11006;SDS011;8186;57.652;11.968;2024-02-15T07:06:35;12.10;;;10.07;;
11006;SDS011;8186;57.652;11.968;2024-02-15T07:09:02;14.43;;;10.20;;
11006;SDS011;8186;57.652;11.968;2024-02-15T07:11:30;13.17;;;10.23;;
11006;SDS011;8186;57.652;11.968;2024-02-15T07:13:58;13.57;;;10.57;;
11006;SDS011;8186;57.652;11.968;2024-02-15T07:16:25;12.47;;;9.97;;
11006;SDS011;8186;57.652;11.968;2024-02-15T07:18:53;12.17;;;9.47;;
11006;SDS011;8186;57.652;11.968;2024-02-15T07:21:20;13.23;;;10.30;;
11006;SDS011;8186;57.652;11.968;2024-02-15T07:23:51;12.93;;;9.83;;
11006;SDS011;8186;57.652;11.968;2024-02-15T07:26:19;14.50;;;9.73;;
11006;SDS011;8186;57.652;11.968;2024-02-15T07:28:49;11.83;;;9.47;;
11006;SDS011;8186;57.652;11.968;2024-02-15T07:31:18;12.57;;;9.80;;
11006;SDS011;8186;57.652;11.968;2024-02-15T07:33:46;12.17;;;9.90;;
11006;SDS011;8186;57.652;11.968;2024-02-15T07:36:18;12.63;;;9.03;;
11006;SDS011;8186;57.652;11.968;2024-02-15T07:38:46;13.03;;;10.07;;
11006;SDS011;8186;57.652;11.968;2024-02-15T07:41:14;13.80;;;10.17;;
11006;SDS011;8186;57.652;11.968;2024-02-15T07:43:41;13.27;;;10.43;;
11006;SDS011;8186;57.652;11.968;2024-02-15T07:46:11;11.73;;;9.10;;
11006;SDS011;8186;57.652;11.968;2024-02-15T07:48:39;13.50;;;9.63;;
11006;SDS011;8186;57.652;11.968;2024-02-15T07:51:10;12.60;;;10.17;;
11006;SDS011;8186;57.652;11.968;2024-02-15T07:53:40;12.93;;;9.73;;
11006;SDS011;8186;57.652;11.968;2024-02-15T07:56:08;12.03;;;9.63;;
11006;SDS011;8186;57.652;11.968;2024-02-15T07:58:37;13.17;;;10.03;;
11006;SDS011;8186;57.652;11.968;2024-02-15T08:01:06;12.70;;;10.30;;
11006;SDS011;8186;57.652;11.968;2024-02-15T08:03:33;14.67;;;10.47;;
11006;SDS011;8186;57.652;11.968;2024-02-15T08:06:01;13.23;;;10.10;;
11006;SDS011;8186;57.652;11.968;2024-02-15T08:08:31;12.70;;;10.13;;
11006;SDS011;8186;57.652;11.968;2024-02-15T08:11:01;11.50;;;9.37;;
11006;SDS011;8186;57.652;11.968;2024-02-15T08:13:28;13.53;;;10.43;;
11006;SDS011;8186;57.652;11.968;2024-02-15T08:15:55;12.77;;;9.83;;
11006;SDS011;8186;57.652;11.968;2024-02-15T08:18:22;12.07;;;9.17;;
11006;SDS011;8186;57.652;11.968;2024-02-15T08:20:50;12.00;;;10.00;;
11006;SDS011;8186;57.652;11.968;2024-02-15T08:23:16;11.87;;;9.07;;
11006;SDS011;8186;57.652;11.968;2024-02-15T08:25:43;12.13;;;9.57;;
11006;SDS011;8186;57.652;11.968;2024-02-15T08:28:11;13.43;;;10.03;;
11006;SDS011;8186;57.652;11.968;2024-02-15T08:30:38;12.90;;;10.00;;
11006;SDS011;8186;57.652;11.968;2024-02-15T08:33:06;12.00;;;9.67;;
11006;SDS011;8186;57.652;11.968;2024-02-15T08:35:35;12.17;;;9.40;;
11006;SDS011;8186;57.652;11.968;2024-02-15T08:38:03;10.80;;;8.53;;
11006;SDS011;8186;57.652;11.968;2024-02-15T08:40:31;10.70;;;8.17;;
11006;SDS011;8186;57.652;11.968;2024-02-15T08:42:57;11.97;;;9.77;;
11006;SDS011;8186;57.652;11.968;2024-02-15T08:45:26;13.83;;;9.10;;
11006;SDS011;8186;57.652;11.968;2024-02-15T08:47:52;12.70;;;9.77;;
11006;SDS011;8186;57.652;11.968;2024-02-15T08:50:19;11.33;;;8.63;;
11006;SDS011;8186;57.652;11.968;2024-02-15T08:52:48;13.37;;;9.90;;
11006;SDS011;8186;57.652;11.968;2024-02-15T08:55:15;10.93;;;8.77;;
11006;SDS011;8186;57.652;11.968;2024-02-15T08:57:42;12.50;;;9.03;;
11006;SDS011;8186;57.652;11.968;2024-02-15T09:00:10;11.43;;;8.83;;
11006;SDS011;8186;57.652;11.968;2024-02-15T09:02:42;9.60;;;7.97;;
11006;SDS011;8186;57.652;11.968;2024-02-15T09:05:09;11.70;;;9.37;;
11006;SDS011;8186;57.652;11.968;2024-02-15T09:07:39;11.57;;;8.83;;
11006;SDS011;8186;57.652;11.968;2024-02-15T09:10:07;10.43;;;7.93;;
11006;SDS011;8186;57.652;11.968;2024-02-15T09:12:36;11.77;;;8.60;;
11006;SDS011;8186;57.652;11.968;2024-02-15T09:15:05;11.30;;;8.47;;
11006;SDS011;8186;57.652;11.968;2024-02-15T09:17:33;11.30;;;8.43;;
11006;SDS011;8186;57.652;11.968;2024-02-15T09:20:07;9.80;;;8.27;;
11006;SDS011;8186;57.652;11.968;2024-02-15T09:22:39;10.53;;;8.30;;
11006;SDS011;8186;57.652;11.968;2024-02-15T09:25:07;10.83;;;8.30;;
11006;SDS011;8186;57.652;11.968;2024-02-15T09:27:34;11.27;;;8.50;;
11006;SDS011;8186;57.652;11.968;2024-02-15T09:30:02;10.20;;;7.93;;
11006;SDS011;8186;57.652;11.968;2024-02-15T09:32:32;9.57;;;7.83;;
11006;SDS011;8186;57.652;11.968;2024-02-15T09:35:00;10.23;;;8.20;;
11006;SDS011;8186;57.652;11.968;2024-02-15T09:37:29;11.07;;;9.03;;
11006;SDS011;8186;57.652;11.968;2024-02-15T09:39:55;9.57;;;8.20;;
11006;SDS011;8186;57.652;11.968;2024-02-15T09:42:24;9.43;;;7.83;;
11006;SDS011;8186;57.652;11.968;2024-02-15T09:44:51;10.47;;;8.07;;
11006;SDS011;8186;57.652;11.968;2024-02-15T09:47:17;10.10;;;7.93;;
11006;SDS011;8186;57.652;11.968;2024-02-15T09:49:45;10.33;;;8.23;;
11006;SDS011;8186;57.652;11.968;2024-02-15T09:52:12;10.37;;;8.40;;
11006;SDS011;8186;57.652;11.968;2024-02-15T09:54:42;9.13;;;8.03;;
11006;SDS011;8186;57.652;11.968;2024-02-15T09:57:10;9.27;;;7.83;;
11006;SDS011;8186;57.652;11.968;2024-02-15T09:59:37;8.10;;;7.23;;
11006;SDS011;8186;57.652;11.968;2024-02-15T10:02:05;9.00;;;7.67;;
11006;SDS011;8186;57.652;11.968;2024-02-15T10:04:36;8.77;;;7.23;;
11006;SDS011;8186;57.652;11.968;2024-02-15T10:07:04;8.67;;;7.53;;
11006;SDS011;8186;57.652;11.968;2024-02-15T10:09:31;9.47;;;7.70;;
11006;SDS011;8186;57.652;11.968;2024-02-15T10:12:00;8.73;;;7.53;;
11006;SDS011;8186;57.652;11.968;2024-02-15T10:14:28;9.53;;;7.60;;
11006;SDS011;8186;57.652;11.968;2024-02-15T10:16:54;9.17;;;7.67;;
11006;SDS011;8186;57.652;11.968;2024-02-15T10:19:22;9.50;;;7.90;;
11006;SDS011;8186;57.652;11.968;2024-02-15T10:21:51;9.70;;;7.40;;
11006;SDS011;8186;57.652;11.968;2024-02-15T10:24:20;7.73;;;6.87;;
11006;SDS011;8186;57.652;11.968;2024-02-15T10:26:48;7.73;;;6.77;;
11006;SDS011;8186;57.652;11.968;2024-02-15T10:29:18;8.47;;;7.27;;
11006;SDS011;8186;57.652;11.968;2024-02-15T10:31:55;8.03;;;6.40;;
11006;SDS011;8186;57.652;11.968;2024-02-15T10:34:24;7.70;;;6.50;;
11006;SDS011;8186;57.652;11.968;2024-02-15T10:36:52;8.13;;;6.70;;
11006;SDS011;8186;57.652;11.968;2024-02-15T10:39:21;7.53;;;6.67;;
11006;SDS011;8186;57.652;11.968;2024-02-15T10:41:49;6.90;;;6.20;;
11006;SDS011;8186;57.652;11.968;2024-02-15T10:44:20;7.80;;;6.40;;
11006;SDS011;8186;57.652;11.968;2024-02-15T10:46:47;7.00;;;6.20;;
11006;SDS011;8186;57.652;11.968;2024-02-15T10:49:19;7.40;;;6.70;;
11006;SDS011;8186;57.652;11.968;2024-02-15T10:51:49;7.33;;;6.47;;
11006;SDS011;8186;57.652;11.968;2024-02-15T10:54:31;7.07;;;6.37;;
11006;SDS011;8186;57.652;11.968;2024-02-15T10:57:06;6.97;;;6.27;;
11006;SDS011;8186;57.652;11.968;2024-02-15T10:59:35;6.80;;;6.10;;
11006;SDS011;8186;57.652;11.968;2024-02-15T11:02:11;7.43;;;6.10;;
11006;SDS011;8186;57.652;11.968;2024-02-15T11:04:48;6.97;;;6.27;;
11006;SDS011;8186;57.652;11.968;2024-02-15T11:07:22;6.80;;;6.10;;
11006;SDS011;8186;57.652;11.968;2024-02-15T11:09:51;7.20;;;6.10;;
11006;SDS011;8186;57.652;11.968;2024-02-15T11:12:18;6.50;;;5.73;;
11006;SDS011;8186;57.652;11.968;2024-02-15T11:14:47;6.07;;;5.47;;
11006;SDS011;8186;57.652;11.968;2024-02-15T11:23:24;5.50;;;5.00;;
11006;SDS011;8186;57.652;11.968;2024-02-15T11:25:55;6.20;;;5.60;;
11006;SDS011;8186;57.652;11.968;2024-02-15T11:28:40;5.63;;;5.03;;
11006;SDS011;8186;57.652;11.968;2024-02-15T11:31:09;6.27;;;5.67;;
11006;SDS011;8186;57.652;11.968;2024-02-15T11:33:37;5.10;;;4.53;;
11006;SDS011;8186;57.652;11.968;2024-02-15T11:36:05;7.20;;;5.30;;
11006;SDS011;8186;57.652;11.968;2024-02-15T11:38:33;7.63;;;6.93;;
11006;SDS011;8186;57.652;11.968;2024-02-15T11:41:00;5.83;;;5.33;;
11006;SDS011;8186;57.652;11.968;2024-02-15T11:43:48;5.70;;;5.13;;
11006;SDS011;8186;57.652;11.968;2024-02-15T11:46:25;6.00;;;5.40;;
11006;SDS011;8186;57.652;11.968;2024-02-15T11:48:55;6.00;;;5.40;;
11006;SDS011;8186;57.652;11.968;2024-02-15T11:51:24;5.43;;;4.93;;
11006;SDS011;8186;57.652;11.968;2024-02-15T11:53:58;6.07;;;5.47;;
11006;SDS011;8186;57.652;11.968;2024-02-15T11:56:25;6.03;;;5.43;;
11006;SDS011;8186;57.652;11.968;2024-02-15T11:59:01;6.07;;;5.47;;
11006;SDS011;8186;57.652;11.968;2024-02-15T12:01:33;5.73;;;5.10;;
11006;SDS011;8186;57.652;11.968;2024-02-15T12:04:18;6.87;;;5.70;;
11006;SDS011;8186;57.652;11.968;2024-02-15T12:07:03;6.20;;;5.20;;
11006;SDS011;8186;57.652;11.968;2024-02-15T12:09:47;5.50;;;4.80;;
11006;SDS011;8186;57.652;11.968;2024-02-15T12:12:50;6.20;;;5.60;;
11006;SDS011;8186;57.652;11.968;2024-02-15T12:15:58;5.27;;;4.60;;
11006;SDS011;8186;57.652;11.968;2024-02-15T12:18:44;5.23;;;4.73;;
11006;SDS011;8186;57.652;11.968;2024-02-15T12:21:13;5.90;;;5.30;;
11006;SDS011;8186;57.652;11.968;2024-02-15T12:23:42;5.83;;;4.97;;
11006;SDS011;8186;57.652;11.968;2024-02-15T12:26:10;5.30;;;4.80;;
11006;SDS011;8186;57.652;11.968;2024-02-15T12:28:39;5.10;;;4.60;;
11006;SDS011;8186;57.652;11.968;2024-02-15T12:31:08;5.07;;;4.57;;
11006;SDS011;8186;57.652;11.968;2024-02-15T12:33:38;5.50;;;5.00;;
11006;SDS011;8186;57.652;11.968;2024-02-15T12:36:07;5.37;;;4.87;;
11006;SDS011;8186;57.652;11.968;2024-02-15T12:38:34;4.80;;;4.40;;
11006;SDS011;8186;57.652;11.968;2024-02-15T12:41:03;5.50;;;4.37;;
11006;SDS011;8186;57.652;11.968;2024-02-15T12:43:30;5.10;;;4.60;;
11006;SDS011;8186;57.652;11.968;2024-02-15T12:45:58;4.97;;;4.50;;
11006;SDS011;8186;57.652;11.968;2024-02-15T12:48:25;4.40;;;4.00;;
11006;SDS011;8186;57.652;11.968;2024-02-15T12:50:52;5.90;;;5.20;;
11006;SDS011;8186;57.652;11.968;2024-02-15T12:53:22;5.20;;;4.70;;
11006;SDS011;8186;57.652;11.968;2024-02-15T12:55:53;4.57;;;4.17;;
11006;SDS011;8186;57.652;11.968;2024-02-15T12:58:21;4.77;;;4.30;;
11006;SDS011;8186;57.652;11.968;2024-02-15T13:00:49;4.27;;;3.87;;
11006;SDS011;8186;57.652;11.968;2024-02-15T13:03:16;4.23;;;3.93;;
11006;SDS011;8186;57.652;11.968;2024-02-15T13:05:43;3.90;;;3.60;;
11006;SDS011;8186;57.652;11.968;2024-02-15T13:08:10;3.83;;;3.53;;
11006;SDS011;8186;57.652;11.968;2024-02-15T13:10:39;4.13;;;3.80;;
11006;SDS011;8186;57.652;11.968;2024-02-15T13:13:06;4.60;;;3.83;;
11006;SDS011;8186;57.652;11.968;2024-02-15T13:15:34;4.50;;;4.10;;
11006;SDS011;8186;57.652;11.968;2024-02-15T13:18:02;4.20;;;3.80;;
11006;SDS011;8186;57.652;11.968;2024-02-15T13:20:30;4.07;;;3.70;;
11006;SDS011;8186;57.652;11.968;2024-02-15T13:22:59;4.23;;;3.90;;
11006;SDS011;8186;57.652;11.968;2024-02-15T13:25:28;3.90;;;3.60;;
11006;SDS011;8186;57.652;11.968;2024-02-15T13:27:56;5.47;;;3.97;;
11006;SDS011;8186;57.652;11.968;2024-02-15T13:30:23;3.97;;;3.67;;
11006;SDS011;8186;57.652;11.968;2024-02-15T13:32:52;3.50;;;3.20;;
11006;SDS011;8186;57.652;11.968;2024-02-15T13:35:20;3.57;;;3.27;;
11006;SDS011;8186;57.652;11.968;2024-02-15T13:37:49;4.17;;;3.57;;
11006;SDS011;8186;57.652;11.968;2024-02-15T13:40:17;3.50;;;3.20;;
11006;SDS011;8186;57.652;11.968;2024-02-15T13:42:48;3.90;;;3.60;;
11006;SDS011;8186;57.652;11.968;2024-02-15T13:45:19;3.80;;;3.40;;
11006;SDS011;8186;57.652;11.968;2024-02-15T13:47:48;3.83;;;3.53;;
11006;SDS011;8186;57.652;11.968;2024-02-15T13:50:15;4.07;;;3.67;;
11006;SDS011;8186;57.652;11.968;2024-02-15T13:52:42;3.50;;;3.20;;
11006;SDS011;8186;57.652;11.968;2024-02-15T13:55:10;3.40;;;3.10;;
11006;SDS011;8186;57.652;11.968;2024-02-15T13:57:37;3.37;;;3.07;;
11006;SDS011;8186;57.652;11.968;2024-02-15T14:00:04;3.47;;;3.17;;
11006;SDS011;8186;57.652;11.968;2024-02-15T14:02:33;4.00;;;3.30;;
11006;SDS011;8186;57.652;11.968;2024-02-15T14:05:00;2.90;;;2.70;;
11006;SDS011;8186;57.652;11.968;2024-02-15T14:07:27;3.43;;;3.13;;
11006;SDS011;8186;57.652;11.968;2024-02-15T14:09:54;2.60;;;2.40;;
11006;SDS011;8186;57.652;11.968;2024-02-15T14:12:21;2.80;;;2.60;;
11006;SDS011;8186;57.652;11.968;2024-02-15T14:14:48;2.80;;;2.60;;
11006;SDS011;8186;57.652;11.968;2024-02-15T14:17:15;2.93;;;2.70;;
11006;SDS011;8186;57.652;11.968;2024-02-15T14:19:43;3.10;;;2.80;;
11006;SDS011;8186;57.652;11.968;2024-02-15T14:22:10;2.97;;;2.77;;
11006;SDS011;8186;57.652;11.968;2024-02-15T14:24:41;3.07;;;2.57;;
11006;SDS011;8186;57.652;11.968;2024-02-15T14:27:08;3.00;;;2.80;;
11006;SDS011;8186;57.652;11.968;2024-02-15T14:29:36;2.80;;;2.60;;
11006;SDS011;8186;57.652;11.968;2024-02-15T14:32:10;2.60;;;2.40;;
11006;SDS011;8186;57.652;11.968;2024-02-15T14:34:55;4.30;;;2.90;;
11006;SDS011;8186;57.652;11.968;2024-02-15T14:37:22;4.67;;;2.53;;
11006;SDS011;8186;57.652;11.968;2024-02-15T14:39:49;3.50;;;3.20;;
11006;SDS011;8186;57.652;11.968;2024-02-15T14:42:16;3.80;;;2.90;;
11006;SDS011;8186;57.652;11.968;2024-02-15T14:44:43;2.80;;;2.60;;
11006;SDS011;8186;57.652;11.968;2024-02-15T14:47:10;3.80;;;2.77;;
11006;SDS011;8186;57.652;11.968;2024-02-15T14:49:37;3.13;;;2.87;;
11006;SDS011;8186;57.652;11.968;2024-02-15T14:52:06;3.13;;;2.93;;
11006;SDS011;8186;57.652;11.968;2024-02-15T14:54:33;2.97;;;2.77;;